Terminal Aerodrome Forecast
Issued by NWS

Home | Current Version | Previous Version | Text Only | Print | Product List | Glossary On
Versions: 1 2 3 4 5 6 7 8 9 10 11 12 13 14
000
FTUS45 KRIW 202322
TAFBPI
TAF
KBPI 202322Z 2100/2124 08010G18KT P6SM BKN090
     FM210200 35008KT P6SM SCT100
     FM211900 32013G23KT P6SM SCT080=

USA.gov is the U.S. government's official web portal to all federal, state and local government web resources and services.